createdAt,value
2018-12-11T00:00:37.256Z,79.65
2018-12-11T00:03:05.935Z,78.56
2018-12-11T00:05:34.802Z,78.77
2018-12-11T00:08:03.800Z,80.13
2018-12-11T00:10:35.472Z,78.04
2018-12-11T00:13:08.842Z,78.81
2018-12-11T00:15:37.550Z,79.07
2018-12-11T00:18:06.172Z,78.94
2018-12-11T00:20:34.797Z,79.32
2018-12-11T00:23:03.476Z,78.54
2018-12-11T00:25:32.094Z,78.54
2018-12-11T00:28:00.693Z,79.22
2018-12-11T00:30:29.290Z,79.63
2018-12-11T00:32:57.874Z,79.53
2018-12-11T00:35:26.426Z,79.43
2018-12-11T00:37:54.931Z,78.61
2018-12-11T00:40:23.548Z,79.62
2018-12-11T00:42:52.095Z,79.45
2018-12-11T00:45:20.634Z,78.91
2018-12-11T00:47:49.156Z,79.07
2018-12-11T00:50:17.733Z,79.09
2018-12-11T00:52:46.352Z,80.02
2018-12-11T00:55:15.043Z,79.40
2018-12-11T00:57:43.618Z,78.52
2018-12-11T01:00:12.297Z,78.72
2018-12-11T01:02:40.895Z,79.34
2018-12-11T01:05:09.534Z,78.81
2018-12-11T01:07:38.488Z,79.31
2018-12-11T01:10:09.684Z,79.80
2018-12-11T01:12:38.521Z,79.99
2018-12-11T01:15:07.696Z,79.70
2018-12-11T01:17:36.299Z,79.55
2018-12-11T01:20:05.511Z,79.74
2018-12-11T01:22:34.109Z,79.37
2018-12-11T01:25:02.763Z,80.13
2018-12-11T01:27:31.367Z,80.56
2018-12-11T01:29:59.971Z,79.89
2018-12-11T01:32:28.602Z,80.08
2018-12-11T01:34:57.223Z,81.10
2018-12-11T01:37:25.739Z,80.14
2018-12-11T01:39:54.329Z,79.85
2018-12-11T01:42:22.898Z,80.06
2018-12-11T01:44:51.455Z,79.08
2018-12-11T01:47:20.035Z,79.42
2018-12-11T01:49:48.665Z,78.93
2018-12-11T01:52:17.205Z,78.70
2018-12-11T01:54:45.782Z,78.35
2018-12-11T01:57:14.308Z,77.98
2018-12-11T01:59:42.921Z,78.58
2018-12-11T02:02:11.472Z,78.07
2018-12-11T02:04:40.133Z,78.48
2018-12-11T02:07:08.726Z,78.43
2018-12-11T02:09:37.325Z,78.10
2018-12-11T02:12:05.892Z,78.42
2018-12-11T02:14:34.528Z,78.60
2018-12-11T02:17:03.354Z,78.12
2018-12-11T02:19:31.968Z,78.77
2018-12-11T02:22:00.527Z,78.36
2018-12-11T02:24:29.140Z,78.53
2018-12-11T02:26:57.686Z,77.76
2018-12-11T02:29:26.297Z,78.19
2018-12-11T02:31:54.929Z,78.49
2018-12-11T02:34:23.488Z,78.89
2018-12-11T02:36:52.077Z,78.52
2018-12-11T02:39:20.639Z,78.21
2018-12-11T02:41:49.229Z,78.02
2018-12-11T02:44:17.792Z,78.93
2018-12-11T02:46:46.389Z,78.91
2018-12-11T02:49:14.994Z,78.98
2018-12-11T02:51:43.563Z,78.06
2018-12-11T02:54:12.107Z,78.33
2018-12-11T02:56:40.658Z,77.47
2018-12-11T02:59:09.252Z,77.48
2018-12-11T03:01:37.849Z,77.37
2018-12-11T03:04:06.395Z,76.57
2018-12-11T03:06:35.054Z,75.83
2018-12-11T03:09:05.552Z,76.42
2018-12-11T03:11:34.114Z,75.74
2018-12-11T03:14:02.738Z,75.96
2018-12-11T03:16:31.504Z,76.05
2018-12-11T03:19:00.099Z,75.98
2018-12-11T03:21:28.701Z,76.39
2018-12-11T03:23:57.246Z,76.65
2018-12-11T03:26:25.854Z,76.21
2018-12-11T03:28:54.449Z,76.95
2018-12-11T03:31:23.113Z,77.83
2018-12-11T03:33:51.736Z,76.72
2018-12-11T03:36:20.346Z,77.32
2018-12-11T03:38:48.934Z,77.59
2018-12-11T03:41:17.608Z,77.28
2018-12-11T03:43:46.141Z,77.53
2018-12-11T03:46:14.701Z,77.39
2018-12-11T03:48:43.246Z,78.15
2018-12-11T03:51:11.866Z,77.64
2018-12-11T03:53:40.418Z,78.06
2018-12-11T03:56:09.048Z,78.39
2018-12-11T03:58:37.713Z,79.16
2018-12-11T04:01:06.351Z,78.76
2018-12-11T04:03:35.022Z,78.63
2018-12-11T04:06:03.609Z,79.68
2018-12-11T04:08:32.194Z,79.98
2018-12-11T04:11:00.899Z,79.85
2018-12-11T04:13:29.469Z,79.68
2018-12-11T04:15:58.046Z,79.71
2018-12-11T04:18:26.686Z,79.56
2018-12-11T04:20:55.308Z,79.73
2018-12-11T04:23:23.899Z,79.72
2018-12-11T04:25:52.519Z,79.87
2018-12-11T04:28:21.153Z,80.08
2018-12-11T04:30:49.777Z,79.73
2018-12-11T04:33:18.367Z,79.60
2018-12-11T04:35:47.008Z,80.29
2018-12-11T04:38:15.649Z,79.96
2018-12-11T04:40:44.315Z,80.48
2018-12-11T04:43:12.875Z,79.34
2018-12-11T04:45:41.518Z,79.89
2018-12-11T04:48:10.167Z,79.88
2018-12-11T04:50:38.832Z,80.23
2018-12-11T04:53:07.461Z,78.93
2018-12-11T04:55:36.079Z,79.68
2018-12-11T04:58:04.766Z,79.14
2018-12-11T05:00:33.701Z,79.64
2018-12-11T05:03:02.323Z,79.79
2018-12-11T05:05:30.877Z,79.74
2018-12-11T05:07:59.386Z,79.58
2018-12-11T05:10:28.151Z,79.47
2018-12-11T05:12:56.696Z,78.53
2018-12-11T05:15:25.302Z,79.03
2018-12-11T05:17:53.930Z,79.14
2018-12-11T05:20:22.616Z,78.59
2018-12-11T05:22:51.219Z,78.93
2018-12-11T05:25:19.801Z,79.05
2018-12-11T05:27:48.412Z,78.70
2018-12-11T05:30:17.161Z,78.83
2018-12-11T05:32:45.779Z,78.69
2018-12-11T05:35:14.383Z,78.65
2018-12-11T05:37:42.918Z,78.96
2018-12-11T05:40:11.682Z,78.92
2018-12-11T05:42:40.311Z,79.15
2018-12-11T05:45:08.901Z,79.10
2018-12-11T05:47:37.682Z,78.76
2018-12-11T05:50:07.346Z,78.87
2018-12-11T05:52:35.978Z,78.76
2018-12-11T05:55:05.320Z,79.49
2018-12-11T05:57:33.931Z,79.48
2018-12-11T06:00:02.493Z,79.08
2018-12-11T06:02:31.120Z,78.54
2018-12-11T06:04:59.640Z,78.17
2018-12-11T06:07:28.440Z,77.00
2018-12-11T06:09:57.038Z,77.43
2018-12-11T06:12:25.574Z,77.15
2018-12-11T06:14:54.102Z,77.07
2018-12-11T06:17:22.719Z,76.41
2018-12-11T06:19:51.287Z,75.43
2018-12-11T06:22:19.867Z,74.52
2018-12-11T06:24:48.427Z,73.58
2018-12-11T06:27:17.014Z,73.03
2018-12-11T06:29:45.543Z,72.25
2018-12-11T06:32:14.118Z,71.13
2018-12-11T06:34:42.684Z,71.09
2018-12-11T06:37:11.258Z,70.76
2018-12-11T06:39:39.813Z,70.01
2018-12-11T06:42:08.393Z,69.52
2018-12-11T06:44:36.939Z,69.66
2018-12-11T06:47:05.534Z,69.29
2018-12-11T06:49:34.282Z,69.56
2018-12-11T06:52:02.811Z,69.88
2018-12-11T06:54:31.332Z,69.08
2018-12-11T06:56:59.931Z,68.87
2018-12-11T06:59:28.549Z,69.48
2018-12-11T07:01:57.074Z,68.91
2018-12-11T07:04:25.656Z,68.83
2018-12-11T07:06:54.319Z,69.29
2018-12-11T07:09:22.846Z,68.17
2018-12-11T07:11:51.475Z,66.78
2018-12-11T07:14:20.562Z,66.28
2018-12-11T07:16:49.084Z,65.57
2018-12-11T07:19:17.763Z,65.50
2018-12-11T07:21:46.348Z,65.49
2018-12-11T07:24:14.927Z,64.84
2018-12-11T07:26:43.511Z,64.35
2018-12-11T07:29:12.125Z,65.32
2018-12-11T07:31:40.813Z,64.84
2018-12-11T07:34:09.373Z,65.81
2018-12-11T07:36:37.977Z,63.92
2018-12-11T07:39:07.428Z,63.98
2018-12-11T07:41:35.941Z,63.56
2018-12-11T07:44:04.745Z,63.50
2018-12-11T07:46:33.387Z,63.22
2018-12-11T07:49:02.208Z,63.13
2018-12-11T07:51:30.796Z,62.06
2018-12-11T07:53:59.406Z,61.48
2018-12-11T07:56:27.981Z,60.19
2018-12-11T07:58:56.650Z,58.39
2018-12-11T08:01:25.278Z,59.61
2018-12-11T08:03:53.881Z,59.89
2018-12-11T08:06:22.431Z,58.75
2018-12-11T08:08:50.989Z,58.11
2018-12-11T08:11:19.531Z,58.10
2018-12-11T08:13:48.062Z,57.19
2018-12-11T08:16:17.482Z,56.89
2018-12-11T08:18:46.009Z,57.75
2018-12-11T08:21:14.600Z,57.43
2018-12-11T08:23:43.141Z,58.23
2018-12-11T08:26:11.713Z,59.14
2018-12-11T08:28:40.294Z,58.78
2018-12-11T08:31:08.890Z,58.86
2018-12-11T08:33:37.489Z,58.70
2018-12-11T08:36:06.050Z,57.44
2018-12-11T08:38:34.701Z,56.55
2018-12-11T08:41:03.281Z,56.11
2018-12-11T08:43:31.798Z,56.33
2018-12-11T08:46:00.376Z,56.62
2018-12-11T08:48:28.918Z,55.13
2018-12-11T08:50:57.581Z,55.43
2018-12-11T08:53:26.184Z,55.19
2018-12-11T08:55:54.710Z,54.82
2018-12-11T08:58:23.342Z,55.52
2018-12-11T09:00:52.204Z,56.19
2018-12-11T09:03:20.830Z,56.63
2018-12-11T09:05:49.491Z,55.92
2018-12-11T09:08:18.137Z,57.12
2018-12-11T09:10:53.428Z,57.36
2018-12-11T09:13:22.032Z,55.99
2018-12-11T09:15:50.571Z,55.68
2018-12-11T09:18:19.222Z,55.08
2018-12-11T09:20:47.751Z,54.23
2018-12-11T09:23:16.312Z,53.20
2018-12-11T09:25:44.969Z,53.91
2018-12-11T09:28:13.557Z,53.64
2018-12-11T09:30:42.166Z,55.60
2018-12-11T09:33:10.767Z,56.09
2018-12-11T09:35:39.597Z,55.57
2018-12-11T09:38:08.214Z,55.54
2018-12-11T09:40:36.939Z,55.08
2018-12-11T09:43:05.489Z,53.73
2018-12-11T09:45:34.117Z,52.62
2018-12-11T09:48:02.723Z,53.23
2018-12-11T09:50:31.287Z,54.64
2018-12-11T09:52:59.850Z,56.48
2018-12-11T09:55:28.433Z,56.48
2018-12-11T09:57:57.183Z,56.92
2018-12-11T10:00:27.414Z,58.44
2018-12-11T10:02:56.347Z,58.51
2018-12-11T10:05:24.974Z,57.41
2018-12-11T10:07:53.611Z,57.35
2018-12-11T10:10:22.240Z,57.83
2018-12-11T10:12:50.857Z,58.62
2018-12-11T10:15:19.477Z,56.62
2018-12-11T10:17:48.146Z,54.84
2018-12-11T10:20:17.078Z,54.22
2018-12-11T10:22:45.702Z,53.33
2018-12-11T10:25:14.353Z,50.94
2018-12-11T10:27:42.962Z,51.19
2018-12-11T10:30:12.312Z,51.85
2018-12-11T10:32:40.921Z,51.06
2018-12-11T10:35:09.611Z,52.51
2018-12-11T10:37:38.159Z,52.12
2018-12-11T10:40:07.127Z,51.57
2018-12-11T10:42:36.131Z,50.95
2018-12-11T10:45:04.971Z,51.63
2018-12-11T10:47:33.593Z,50.59
2018-12-11T10:50:02.307Z,49.41
2018-12-11T10:52:30.975Z,47.64
2018-12-11T10:54:59.649Z,47.91
2018-12-11T10:57:28.263Z,47.90
2018-12-11T10:59:56.787Z,48.80
2018-12-11T11:02:27.701Z,49.14
2018-12-11T11:04:56.218Z,48.83
2018-12-11T11:07:24.761Z,48.07
2018-12-11T11:09:53.292Z,48.68
2018-12-11T11:12:21.875Z,47.86
2018-12-11T11:14:50.534Z,48.36
2018-12-11T11:17:19.129Z,48.72
2018-12-11T11:19:47.833Z,47.54
2018-12-11T11:22:16.525Z,48.35
2018-12-11T11:24:45.178Z,48.08
2018-12-11T11:27:13.894Z,47.95
2018-12-11T11:29:42.465Z,47.98
2018-12-11T11:32:11.031Z,48.08
2018-12-11T11:34:41.220Z,47.18
2018-12-11T11:37:09.775Z,47.23
2018-12-11T11:39:38.419Z,46.88
2018-12-11T11:42:06.764Z,45.89
2018-12-11T11:44:35.355Z,47.10
2018-12-11T11:47:04.403Z,47.74
2018-12-11T11:49:33.018Z,46.17
2018-12-11T11:52:01.596Z,46.78
2018-12-11T11:54:30.122Z,47.47
2018-12-11T11:56:58.707Z,47.60
2018-12-11T11:59:27.347Z,46.66
2018-12-11T12:01:56.080Z,46.74
2018-12-11T12:04:24.687Z,46.36
2018-12-11T12:06:53.253Z,46.87
2018-12-11T12:09:21.841Z,47.50
2018-12-11T12:11:50.516Z,48.63
2018-12-11T12:14:19.096Z,49.42
2018-12-11T12:16:47.613Z,49.07
2018-12-11T12:19:16.176Z,49.75
2018-12-11T12:21:44.780Z,49.64
2018-12-11T12:24:13.442Z,50.53
2018-12-11T12:26:42.153Z,50.29
2018-12-11T12:29:10.721Z,50.93
2018-12-11T12:31:39.396Z,50.46
2018-12-11T12:34:07.968Z,51.66
2018-12-11T12:36:36.599Z,51.20
2018-12-11T12:39:07.811Z,51.23
2018-12-11T12:41:36.597Z,51.42
2018-12-11T12:44:05.132Z,51.55
2018-12-11T12:46:33.668Z,51.87
2018-12-11T12:49:02.314Z,52.01
2018-12-11T12:51:30.954Z,52.64
2018-12-11T12:53:59.506Z,51.92
2018-12-11T12:56:28.044Z,51.15
2018-12-11T12:58:56.630Z,51.20
2018-12-11T13:01:25.261Z,51.21
2018-12-11T13:03:54.049Z,50.73
2018-12-11T13:06:22.654Z,52.36
2018-12-11T13:08:51.619Z,52.80
2018-12-11T13:11:20.696Z,52.61
2018-12-11T13:13:49.203Z,52.38
2018-12-11T13:16:17.801Z,52.83
2018-12-11T13:18:46.377Z,53.74
2018-12-11T13:21:15.021Z,54.36
2018-12-11T13:23:43.706Z,55.47
2018-12-11T13:26:12.290Z,56.36
2018-12-11T13:28:40.922Z,57.81
2018-12-11T13:31:09.538Z,57.97
2018-12-11T13:33:38.129Z,58.32
2018-12-11T13:36:07.285Z,58.52
2018-12-11T13:38:36.027Z,59.21
2018-12-11T13:41:04.697Z,59.60
2018-12-11T13:43:33.267Z,59.72
2018-12-11T13:46:01.858Z,59.61
2018-12-11T13:48:30.535Z,59.84
2018-12-11T13:50:59.144Z,60.33
2018-12-11T13:53:27.753Z,59.86
2018-12-11T13:55:56.418Z,60.75
2018-12-11T13:58:26.935Z,61.25
2018-12-11T14:00:55.567Z,60.46
2018-12-11T14:03:24.150Z,61.28
2018-12-11T14:05:52.701Z,61.22
2018-12-11T14:08:22.560Z,60.73
2018-12-11T14:10:51.143Z,60.60
2018-12-11T14:13:19.788Z,59.72
2018-12-11T14:15:48.732Z,60.39
2018-12-11T14:18:17.897Z,60.37
2018-12-11T14:20:46.520Z,60.50
2018-12-11T14:23:15.139Z,60.53
2018-12-11T14:25:55.888Z,60.67
2018-12-11T14:28:24.668Z,61.01
2018-12-11T14:30:56.854Z,61.15
2018-12-11T14:33:27.815Z,61.26
2018-12-11T14:35:56.466Z,61.35
2018-12-11T14:38:25.227Z,60.88
2018-12-11T14:40:53.933Z,61.25
2018-12-11T14:43:22.591Z,61.79
2018-12-11T14:45:51.185Z,61.62
2018-12-11T14:48:19.877Z,61.75
2018-12-11T14:50:48.467Z,62.53
2018-12-11T14:53:17.023Z,62.00
2018-12-11T14:55:45.577Z,62.66
2018-12-11T14:58:14.133Z,62.05
2018-12-11T15:00:42.718Z,62.08
2018-12-11T15:03:11.295Z,62.71
2018-12-11T15:05:40.032Z,63.37
2018-12-11T15:08:08.607Z,63.56
2018-12-11T15:10:37.423Z,62.94
2018-12-11T15:13:06.083Z,63.14
2018-12-11T15:15:34.658Z,62.45
2018-12-11T15:18:03.360Z,63.51
2018-12-11T15:20:31.903Z,63.62
2018-12-11T15:23:00.452Z,63.71
2018-12-11T15:25:29.044Z,64.37
2018-12-11T15:27:57.648Z,63.56
2018-12-11T15:30:26.259Z,64.71
2018-12-11T15:32:54.887Z,64.73
2018-12-11T15:35:23.431Z,65.07
2018-12-11T15:37:51.968Z,65.54
2018-12-11T15:42:47.988Z,65.37
2018-12-11T15:45:16.570Z,65.37
2018-12-11T15:47:45.190Z,65.91
2018-12-11T15:50:13.820Z,66.12
2018-12-11T15:52:42.345Z,65.92
2018-12-11T15:55:10.908Z,65.74
2018-12-11T15:57:39.498Z,65.72
2018-12-11T16:00:12.466Z,66.00
2018-12-11T16:02:41.054Z,66.26
2018-12-11T16:05:09.612Z,65.66
2018-12-11T16:07:38.197Z,65.98
2018-12-11T16:10:08.017Z,66.31
2018-12-11T16:12:36.578Z,66.46
2018-12-11T16:15:05.594Z,65.70
2018-12-11T16:17:34.142Z,65.71
2018-12-11T16:20:02.809Z,65.73
2018-12-11T16:22:31.355Z,66.47
2018-12-11T16:25:00.307Z,66.56
2018-12-11T16:27:29.571Z,66.35
2018-12-11T16:29:59.371Z,66.99
2018-12-11T16:32:29.242Z,67.11
2018-12-11T16:34:58.086Z,66.81
2018-12-11T16:37:27.431Z,66.78
2018-12-11T16:40:04.418Z,67.39
2018-12-11T16:42:29.473Z,67.29
2018-12-11T16:44:58.054Z,67.92
2018-12-11T16:47:27.191Z,68.05
2018-12-11T16:49:56.642Z,68.01
2018-12-11T16:52:25.330Z,68.01
2018-12-11T16:54:53.894Z,68.08
2018-12-11T16:57:22.439Z,67.96
2018-12-11T16:59:50.983Z,68.14
2018-12-11T17:02:19.608Z,68.21
2018-12-11T17:04:48.427Z,67.80
2018-12-11T17:07:18.980Z,68.22
2018-12-11T17:09:47.595Z,68.04
2018-12-11T17:12:16.637Z,68.21
2018-12-11T17:14:45.217Z,68.27
2018-12-11T17:17:13.785Z,68.22
2018-12-11T17:19:42.354Z,67.77
2018-12-11T17:22:11.325Z,68.34
2018-12-11T17:24:40.219Z,67.99
2018-12-11T17:27:08.850Z,68.39
2018-12-11T17:29:37.375Z,68.19
2018-12-11T17:32:07.246Z,68.40
2018-12-11T17:34:35.818Z,68.30
2018-12-11T17:37:04.422Z,68.45
2018-12-11T17:39:33.040Z,68.65
2018-12-11T17:42:01.711Z,68.58
2018-12-11T17:44:33.174Z,69.05
2018-12-11T17:47:01.829Z,68.47
2018-12-11T17:49:30.440Z,68.95
2018-12-11T17:51:59.002Z,69.65
2018-12-11T17:54:27.674Z,69.75
2018-12-11T17:56:57.705Z,69.25
2018-12-11T17:59:26.788Z,69.49
2018-12-11T18:02:03.791Z,69.84
2018-12-11T18:04:32.630Z,69.46
2018-12-11T18:07:01.615Z,69.34
2018-12-11T18:09:30.218Z,69.74
2018-12-11T18:11:59.582Z,69.83
2018-12-11T18:14:28.209Z,69.13
2018-12-11T18:16:56.885Z,69.33
2018-12-11T18:19:25.931Z,69.38
2018-12-11T18:21:54.529Z,69.41
2018-12-11T18:24:23.194Z,69.54
2018-12-11T18:26:51.785Z,70.13
2018-12-11T18:29:20.883Z,70.41
2018-12-11T18:31:50.038Z,70.09
2018-12-11T18:34:19.039Z,70.67
2018-12-11T18:36:47.858Z,70.98
2018-12-11T18:39:16.856Z,71.11
2018-12-11T18:41:48.831Z,71.24
2018-12-11T18:44:18.248Z,71.40
2018-12-11T18:46:47.206Z,71.65
2018-12-11T18:49:16.086Z,71.50
2018-12-11T18:51:44.741Z,71.06
2018-12-11T18:54:13.749Z,72.08
2018-12-11T18:56:42.535Z,71.74
2018-12-11T18:59:11.127Z,71.88
2018-12-11T19:01:40.235Z,71.83
2018-12-11T19:04:13.388Z,71.94
2018-12-11T19:06:44.891Z,71.19
2018-12-11T19:09:13.532Z,71.70
2018-12-11T19:11:42.172Z,71.10
2018-12-11T19:14:12.060Z,71.06
2018-12-11T19:16:40.649Z,71.13
2018-12-11T19:19:09.226Z,70.87
2018-12-11T19:21:38.290Z,70.90
2018-12-11T19:24:18.432Z,70.90
2018-12-11T19:26:47.036Z,71.08
2018-12-11T19:29:18.716Z,71.49
2018-12-11T19:31:47.451Z,71.30
2018-12-11T19:34:15.989Z,71.43
2018-12-11T19:36:44.705Z,71.60
2018-12-11T19:39:13.703Z,71.56
2018-12-11T19:41:42.271Z,71.19
2018-12-11T19:44:11.206Z,71.77
2018-12-11T19:46:39.786Z,71.35
2018-12-11T19:49:09.120Z,71.36
2018-12-11T19:51:37.694Z,71.39
2018-12-11T19:54:06.309Z,71.69
2018-12-11T19:56:34.904Z,71.15
2018-12-11T19:59:03.562Z,71.43
2018-12-11T20:01:32.105Z,71.81
2018-12-11T20:04:00.936Z,72.38
2018-12-11T20:06:29.786Z,71.89
2018-12-11T20:08:58.413Z,72.36
2018-12-11T20:14:02.002Z,72.44
2018-12-11T20:16:30.838Z,72.51
2018-12-11T20:19:00.773Z,72.13
2018-12-11T20:21:29.552Z,72.42
2018-12-11T20:24:04.997Z,72.30
2018-12-11T20:26:38.969Z,72.41
2018-12-11T20:29:04.049Z,72.91
2018-12-11T20:31:32.653Z,72.05
2018-12-11T20:34:01.312Z,73.03
2018-12-11T20:36:29.941Z,72.98
2018-12-11T20:38:58.527Z,73.33
2018-12-11T20:41:27.106Z,73.06
2018-12-11T20:43:55.676Z,72.70
2018-12-11T20:46:25.926Z,73.57
2018-12-11T20:48:54.534Z,73.63
2018-12-11T20:51:23.117Z,73.03
2018-12-11T20:53:51.747Z,72.80
2018-12-11T20:56:20.365Z,72.86
2018-12-11T20:58:48.916Z,73.58
2018-12-11T21:01:17.442Z,73.18
2018-12-11T21:03:46.034Z,73.81
2018-12-11T21:06:14.616Z,73.82
2018-12-11T21:08:44.561Z,74.05
2018-12-11T21:11:13.146Z,74.27
2018-12-11T21:13:41.695Z,73.96
2018-12-11T21:16:11.106Z,74.53
2018-12-11T21:18:40.072Z,74.73
2018-12-11T21:21:09.524Z,75.48
2018-12-11T21:23:38.151Z,74.83
2018-12-11T21:26:06.746Z,75.32
2018-12-11T21:28:35.390Z,75.20
2018-12-11T21:31:03.997Z,75.39
2018-12-11T21:33:32.660Z,75.43
2018-12-11T21:36:01.280Z,75.49
2018-12-11T21:38:29.859Z,75.25
2018-12-11T21:40:58.395Z,75.02
2018-12-11T21:43:26.987Z,75.53
2018-12-11T21:45:55.566Z,75.01
2018-12-11T21:48:24.167Z,74.77
2018-12-11T21:50:52.776Z,75.09
2018-12-11T21:53:21.326Z,74.47
2018-12-11T21:55:50.044Z,74.72
2018-12-11T21:58:18.804Z,74.79
2018-12-11T22:00:47.371Z,74.00
2018-12-11T22:03:16.325Z,74.12
2018-12-11T22:05:45.160Z,74.71
2018-12-11T22:08:13.757Z,74.56
2018-12-11T22:10:42.303Z,73.90
2018-12-11T22:13:10.871Z,73.31
2018-12-11T22:15:39.455Z,73.97
2018-12-11T22:18:07.970Z,73.32
2018-12-11T22:20:36.496Z,72.83
2018-12-11T22:23:05.098Z,72.71
2018-12-11T22:25:33.723Z,72.89
2018-12-11T22:28:02.324Z,72.94
2018-12-11T22:30:31.102Z,72.04
2018-12-11T22:32:59.629Z,72.41
2018-12-11T22:35:28.160Z,72.69
2018-12-11T22:37:56.712Z,72.56
2018-12-11T22:40:25.249Z,72.95
2018-12-11T22:42:53.847Z,73.29
2018-12-11T22:45:22.506Z,71.99
2018-12-11T22:47:51.076Z,72.82
2018-12-11T22:50:19.631Z,73.20
2018-12-11T22:52:48.423Z,72.41
2018-12-11T22:55:17.000Z,72.57
2018-12-11T22:57:45.543Z,72.44
2018-12-11T23:00:14.168Z,72.80
2018-12-11T23:02:42.743Z,73.39
2018-12-11T23:05:11.548Z,72.76
2018-12-11T23:07:40.047Z,73.27
2018-12-11T23:10:08.725Z,72.83
2018-12-11T23:12:37.278Z,73.54
2018-12-11T23:15:06.788Z,72.78
2018-12-11T23:17:35.348Z,72.38
2018-12-11T23:20:04.296Z,72.34
2018-12-11T23:22:32.932Z,72.35
2018-12-11T23:25:01.495Z,72.23
2018-12-11T23:27:30.015Z,72.49
2018-12-11T23:29:58.613Z,72.38
2018-12-11T23:32:27.161Z,71.76
2018-12-11T23:34:55.871Z,71.81
2018-12-11T23:37:24.406Z,71.54
2018-12-11T23:39:52.995Z,71.24
2018-12-11T23:42:21.508Z,72.01
2018-12-11T23:44:50.033Z,71.82
2018-12-11T23:47:18.703Z,71.63
2018-12-11T23:49:47.656Z,72.02
2018-12-11T23:52:16.227Z,71.32
2018-12-11T23:54:44.816Z,71.57
2018-12-11T23:57:13.347Z,71.52
2018-12-11T23:59:41.898Z,71.53
